sensor_id;sensor_type;location;lat;lon;timestamp;pressure;altitude;pressure_sealevel;temperature;humidity
68654;BME280;55636;51.108;13.622;2022-12-07T00:01:06;100175.44;;;2.96;66.63
68654;BME280;55636;51.108;13.622;2022-12-07T00:02:11;100173.97;;;2.93;66.60
68654;BME280;55636;51.108;13.622;2022-12-07T00:03:14;100168.53;;;2.93;66.67
68654;BME280;55636;51.108;13.622;2022-12-07T00:04:19;100168.53;;;2.93;66.66
68654;BME280;55636;51.108;13.622;2022-12-07T00:05:21;100171.25;;;2.93;66.51
68654;BME280;55636;51.108;13.622;2022-12-07T00:06:23;100169.34;;;2.93;66.50
68654;BME280;55636;51.108;13.622;2022-12-07T00:07:25;100169.34;;;2.93;66.50
68654;BME280;55636;51.108;13.622;2022-12-07T00:08:30;100171.25;;;2.93;66.31
68654;BME280;55636;51.108;13.622;2022-12-07T00:09:50;100163.28;;;2.91;66.39
68654;BME280;55636;51.108;13.622;2022-12-07T00:11:09;100166.84;;;2.92;66.38
68654;BME280;55636;51.108;13.622;2022-12-07T00:12:12;100166.00;;;2.91;66.52
68654;BME280;55636;51.108;13.622;2022-12-07T00:13:15;100166.84;;;2.92;66.31
68654;BME280;55636;51.108;13.622;2022-12-07T00:14:21;100164.13;;;2.92;66.35
68654;BME280;55636;51.108;13.622;2022-12-07T00:15:23;100160.56;;;2.91;66.40
68654;BME280;55636;51.108;13.622;2022-12-07T00:16:28;100158.66;;;2.92;66.16
68654;BME280;55636;51.108;13.622;2022-12-07T00:17:34;100156.75;;;2.92;66.21
68654;BME280;55636;51.108;13.622;2022-12-07T00:18:37;100159.69;;;2.91;66.41
68654;BME280;55636;51.108;13.622;2022-12-07T00:19:39;100158.03;;;2.90;66.22
68654;BME280;55636;51.108;13.622;2022-12-07T00:20:42;100157.19;;;2.89;66.25
68654;BME280;55636;51.108;13.622;2022-12-07T00:21:44;100157.19;;;2.89;66.19
68654;BME280;55636;51.108;13.622;2022-12-07T00:22:49;100154.25;;;2.91;66.17
68654;BME280;55636;51.108;13.622;2022-12-07T00:23:52;100155.94;;;2.92;66.30
68654;BME280;55636;51.108;13.622;2022-12-07T00:24:57;100145.44;;;2.89;66.25
68654;BME280;55636;51.108;13.622;2022-12-07T00:26:32;100156.97;;;2.91;66.09
68654;BME280;55636;51.108;13.622;2022-12-07T00:27:38;100147.97;;;2.90;66.07
68654;BME280;55636;51.108;13.622;2022-12-07T00:28:41;100150.69;;;2.90;66.04
68654;BME280;55636;51.108;13.622;2022-12-07T00:29:46;100149.00;;;2.89;66.08
68654;BME280;55636;51.108;13.622;2022-12-07T00:30:52;100149.00;;;2.89;65.97
68654;BME280;55636;51.108;13.622;2022-12-07T00:31:54;100145.22;;;2.90;65.95
68654;BME280;55636;51.108;13.622;2022-12-07T00:32:56;100146.28;;;2.89;65.95
68654;BME280;55636;51.108;13.622;2022-12-07T00:33:59;100146.28;;;2.89;66.02
68654;BME280;55636;51.108;13.622;2022-12-07T00:35:01;100148.19;;;2.89;66.04
68654;BME280;55636;51.108;13.622;2022-12-07T00:36:07;100150.91;;;2.89;65.93
68654;BME280;55636;51.108;13.622;2022-12-07T00:37:10;100146.50;;;2.88;65.94
68654;BME280;55636;51.108;13.622;2022-12-07T00:38:12;100141.88;;;2.88;66.08
68654;BME280;55636;51.108;13.622;2022-12-07T00:39:14;100133.69;;;2.88;66.03
68654;BME280;55636;51.108;13.622;2022-12-07T00:40:17;100144.81;;;2.87;66.03
68654;BME280;55636;51.108;13.622;2022-12-07T00:41:21;100139.34;;;2.87;66.06
68654;BME280;55636;51.108;13.622;2022-12-07T00:42:24;100141.25;;;2.86;65.98
68654;BME280;55636;51.108;13.622;2022-12-07T00:43:27;100144.00;;;2.86;66.09
68654;BME280;55636;51.108;13.622;2022-12-07T00:44:29;100137.69;;;2.86;65.96
68654;BME280;55636;51.108;13.622;2022-12-07T00:45:32;100137.47;;;2.87;65.98
68654;BME280;55636;51.108;13.622;2022-12-07T00:46:34;100142.91;;;2.87;66.15
68654;BME280;55636;51.108;13.622;2022-12-07T00:47:36;100144.00;;;2.86;66.04
68654;BME280;55636;51.108;13.622;2022-12-07T00:48:39;100142.91;;;2.87;66.02
68654;BME280;55636;51.108;13.622;2022-12-07T00:49:41;100144.00;;;2.86;65.96
68654;BME280;55636;51.108;13.622;2022-12-07T00:50:45;100132.00;;;2.87;65.93
68654;BME280;55636;51.108;13.622;2022-12-07T00:51:48;100140.19;;;2.87;65.94
68654;BME280;55636;51.108;13.622;2022-12-07T00:52:51;100140.19;;;2.87;65.92
68654;BME280;55636;51.108;13.622;2022-12-07T00:53:56;100141.03;;;2.88;66.02
68654;BME280;55636;51.108;13.622;2022-12-07T00:54:59;100133.69;;;2.88;65.88
68654;BME280;55636;51.108;13.622;2022-12-07T00:56:07;100137.28;;;2.89;65.93
68654;BME280;55636;51.108;13.622;2022-12-07T00:57:09;100126.53;;;2.87;66.00
68654;BME280;55636;51.108;13.622;2022-12-07T00:58:12;100132.00;;;2.87;65.83
68654;BME280;55636;51.108;13.622;2022-12-07T00:59:14;100131.81;;;2.89;65.88
68654;BME280;55636;51.108;13.622;2022-12-07T01:00:17;100134.53;;;2.89;65.86
68654;BME280;55636;51.108;13.622;2022-12-07T01:01:20;100134.53;;;2.89;66.06
68654;BME280;55636;51.108;13.622;2022-12-07T01:02:22;100128.22;;;2.88;65.91
68654;BME280;55636;51.108;13.622;2022-12-07T01:03:25;100129.09;;;2.89;65.98
68654;BME280;55636;51.108;13.622;2022-12-07T01:04:27;100129.09;;;2.89;66.15
68654;BME280;55636;51.108;13.622;2022-12-07T01:05:29;100131.81;;;2.89;65.85
68654;BME280;55636;51.108;13.622;2022-12-07T01:06:32;100128.88;;;2.90;66.08
68654;BME280;55636;51.108;13.622;2022-12-07T01:07:34;100130.72;;;2.90;66.06
68654;BME280;55636;51.108;13.622;2022-12-07T01:08:39;100132.41;;;2.91;66.09
68654;BME280;55636;51.108;13.622;2022-12-07T01:09:41;100126.97;;;2.91;65.92
68654;BME280;55636;51.108;13.622;2022-12-07T01:10:43;100129.69;;;2.91;65.87
68654;BME280;55636;51.108;13.622;2022-12-07T01:11:45;100127.81;;;2.91;65.86
68654;BME280;55636;51.108;13.622;2022-12-07T01:12:48;100121.50;;;2.91;65.95
68654;BME280;55636;51.108;13.622;2022-12-07T01:13:52;100130.53;;;2.91;65.75
68654;BME280;55636;51.108;13.622;2022-12-07T01:14:55;100130.53;;;2.91;65.71
68654;BME280;55636;51.108;13.622;2022-12-07T01:15:59;100124.00;;;2.92;65.99
68654;BME280;55636;51.108;13.622;2022-12-07T01:17:01;100125.09;;;2.91;65.89
68654;BME280;55636;51.108;13.622;2022-12-07T01:18:04;100124.00;;;2.92;65.88
68654;BME280;55636;51.108;13.622;2022-12-07T01:19:06;100124.00;;;2.92;65.89
68654;BME280;55636;51.108;13.622;2022-12-07T01:20:09;100129.28;;;2.94;65.99
68654;BME280;55636;51.108;13.622;2022-12-07T01:21:32;100122.97;;;2.93;65.86
68654;BME280;55636;51.108;13.622;2022-12-07T01:22:40;100116.69;;;2.93;65.83
68654;BME280;55636;51.108;13.622;2022-12-07T01:23:43;100127.59;;;2.93;65.80
68654;BME280;55636;51.108;13.622;2022-12-07T01:24:46;100124.88;;;2.93;65.62
68654;BME280;55636;51.108;13.622;2022-12-07T01:26:00;100121.09;;;2.94;65.72
68654;BME280;55636;51.108;13.622;2022-12-07T01:27:02;100126.56;;;2.94;65.69
68654;BME280;55636;51.108;13.622;2022-12-07T01:28:05;100122.97;;;2.93;65.54
68654;BME280;55636;51.108;13.622;2022-12-07T01:29:08;100126.75;;;2.92;65.50
68654;BME280;55636;51.108;13.622;2022-12-07T01:30:10;100127.59;;;2.93;65.45
68654;BME280;55636;51.108;13.622;2022-12-07T01:31:15;100120.44;;;2.92;65.39
68654;BME280;55636;51.108;13.622;2022-12-07T01:32:18;100124.88;;;2.93;65.51
68654;BME280;55636;51.108;13.622;2022-12-07T01:33:20;100126.75;;;2.92;65.51
68654;BME280;55636;51.108;13.622;2022-12-07T01:34:23;100118.56;;;2.92;65.38
68654;BME280;55636;51.108;13.622;2022-12-07T01:35:25;100122.34;;;2.91;65.54
68654;BME280;55636;51.108;13.622;2022-12-07T01:36:32;100125.09;;;2.91;65.42
68654;BME280;55636;51.108;13.622;2022-12-07T01:37:36;100131.38;;;2.92;65.46
68654;BME280;55636;51.108;13.622;2022-12-07T01:38:38;100126.97;;;2.91;65.35
68654;BME280;55636;51.108;13.622;2022-12-07T01:39:41;100128.88;;;2.90;65.30
68654;BME280;55636;51.108;13.622;2022-12-07T01:40:44;100123.41;;;2.90;65.41
68654;BME280;55636;51.108;13.622;2022-12-07T01:41:46;100121.72;;;2.89;65.43
68654;BME280;55636;51.108;13.622;2022-12-07T01:42:48;100130.72;;;2.90;65.50
68654;BME280;55636;51.108;13.622;2022-12-07T01:45:38;100129.91;;;2.89;65.50
68654;BME280;55636;51.108;13.622;2022-12-07T01:46:43;100119.00;;;2.89;65.40
68654;BME280;55636;51.108;13.622;2022-12-07T01:47:55;100129.09;;;2.89;65.34
68654;BME280;55636;51.108;13.622;2022-12-07T01:48:58;100122.75;;;2.88;65.33
68654;BME280;55636;51.108;13.622;2022-12-07T01:50:01;100127.41;;;2.88;65.29
68654;BME280;55636;51.108;13.622;2022-12-07T01:51:09;100124.66;;;2.88;65.19
68654;BME280;55636;51.108;13.622;2022-12-07T01:52:26;100123.81;;;2.87;65.28
68654;BME280;55636;51.108;13.622;2022-12-07T01:53:34;100131.19;;;2.87;65.37
68654;BME280;55636;51.108;13.622;2022-12-07T01:54:38;100129.28;;;2.87;65.36
68654;BME280;55636;51.108;13.622;2022-12-07T01:55:42;100133.91;;;2.87;65.48
68654;BME280;55636;51.108;13.622;2022-12-07T01:56:50;100130.13;;;2.88;65.33
68654;BME280;55636;51.108;13.622;2022-12-07T01:57:55;100130.34;;;2.86;65.43
68654;BME280;55636;51.108;13.622;2022-12-07T01:58:59;100135.81;;;2.86;65.50
68654;BME280;55636;51.108;13.622;2022-12-07T02:00:04;100126.75;;;2.86;65.36
68654;BME280;55636;51.108;13.622;2022-12-07T02:01:16;100138.53;;;2.86;65.39
68654;BME280;55636;51.108;13.622;2022-12-07T02:02:23;100134.13;;;2.85;65.53
68654;BME280;55636;51.108;13.622;2022-12-07T02:03:39;100134.94;;;2.86;65.48
68654;BME280;55636;51.108;13.622;2022-12-07T02:04:42;100125.94;;;2.85;65.27
68654;BME280;55636;51.108;13.622;2022-12-07T02:05:44;100126.97;;;2.84;65.38
68654;BME280;55636;51.108;13.622;2022-12-07T02:06:49;100125.31;;;2.83;65.32
68654;BME280;55636;51.108;13.622;2022-12-07T02:07:55;100123.44;;;2.84;65.22
68654;BME280;55636;51.108;13.622;2022-12-07T02:08:58;100120.06;;;2.82;65.23
68654;BME280;55636;51.108;13.622;2022-12-07T02:10:17;100123.84;;;2.81;65.02
68654;BME280;55636;51.108;13.622;2022-12-07T02:11:20;100121.34;;;2.79;65.15
68654;BME280;55636;51.108;13.622;2022-12-07T02:12:24;100122.38;;;2.78;65.19
68654;BME280;55636;51.108;13.622;2022-12-07T02:13:30;100125.28;;;2.76;65.19
68654;BME280;55636;51.108;13.622;2022-12-07T02:14:33;100124.25;;;2.77;65.02
68654;BME280;55636;51.108;13.622;2022-12-07T02:17:13;100117.56;;;2.73;64.97
68654;BME280;55636;51.108;13.622;2022-12-07T02:24:54;100118.84;;;2.64;64.58
68654;BME280;55636;51.108;13.622;2022-12-07T02:26:21;100115.47;;;2.62;64.76
68654;BME280;55636;51.108;13.622;2022-12-07T02:30:08;100111.72;;;2.56;64.72
68654;BME280;55636;51.108;13.622;2022-12-07T02:31:18;100106.47;;;2.55;64.50
68654;BME280;55636;51.108;13.622;2022-12-07T02:32:40;100113.22;;;2.52;64.72
68654;BME280;55636;51.108;13.622;2022-12-07T02:34:09;100105.44;;;2.49;64.53
68654;BME280;55636;51.108;13.622;2022-12-07T02:35:21;100108.38;;;2.48;64.61
68654;BME280;55636;51.108;13.622;2022-12-07T02:36:29;100104.19;;;2.45;64.42
68654;BME280;55636;51.108;13.622;2022-12-07T02:37:41;100099.78;;;2.44;64.45
68654;BME280;55636;51.108;13.622;2022-12-07T02:38:51;100101.03;;;2.41;64.62
68654;BME280;55636;51.108;13.622;2022-12-07T02:40:02;100097.72;;;2.39;64.56
68654;BME280;55636;51.108;13.622;2022-12-07T02:42:20;100097.50;;;2.34;64.39
68654;BME280;55636;51.108;13.622;2022-12-07T02:43:33;100100.44;;;2.33;64.44
68654;BME280;55636;51.108;13.622;2022-12-07T02:44:37;100101.72;;;2.30;64.59
68654;BME280;55636;51.108;13.622;2022-12-07T02:45:41;100100.03;;;2.29;64.51
68654;BME280;55636;51.108;13.622;2022-12-07T02:46:58;100096.44;;;2.29;64.52
68654;BME280;55636;51.108;13.622;2022-12-07T02:48:03;100097.72;;;2.26;64.52
68654;BME280;55636;51.108;13.622;2022-12-07T02:49:08;100097.94;;;2.24;64.69
68654;BME280;55636;51.108;13.622;2022-12-07T02:50:11;100096.47;;;2.22;64.61
68654;BME280;55636;51.108;13.622;2022-12-07T02:51:14;100092.06;;;2.21;64.77
68654;BME280;55636;51.108;13.622;2022-12-07T02:52:16;100095.84;;;2.20;64.73
68654;BME280;55636;51.108;13.622;2022-12-07T02:53:48;100087.88;;;2.18;64.95
68654;BME280;55636;51.108;13.622;2022-12-07T02:54:50;100086.41;;;2.16;65.15
68654;BME280;55636;51.108;13.622;2022-12-07T02:55:52;100086.41;;;2.16;64.84
68654;BME280;55636;51.108;13.622;2022-12-07T02:58:36;100082.03;;;2.15;65.09
68654;BME280;55636;51.108;13.622;2022-12-07T03:01:14;100077.84;;;2.12;65.01
68654;BME280;55636;51.108;13.622;2022-12-07T03:03:47;100077.41;;;2.08;65.14
68654;BME280;55636;51.108;13.622;2022-12-07T03:06:36;100073.22;;;2.06;65.03
68654;BME280;55636;51.108;13.622;2022-12-07T03:09:17;100071.53;;;2.05;65.27
68654;BME280;55636;51.108;13.622;2022-12-07T03:10:36;100070.72;;;2.04;65.40
68654;BME280;55636;51.108;13.622;2022-12-07T03:11:50;100067.34;;;2.02;65.28
68654;BME280;55636;51.108;13.622;2022-12-07T03:14:23;100073.00;;;2.01;65.43
68654;BME280;55636;51.108;13.622;2022-12-07T03:15:32;100071.34;;;2.00;65.57
68654;BME280;55636;51.108;13.622;2022-12-07T03:16:44;100072.38;;;1.99;65.47
68654;BME280;55636;51.108;13.622;2022-12-07T03:17:50;100062.56;;;1.98;65.52
68654;BME280;55636;51.108;13.622;2022-12-07T03:18:57;100062.56;;;1.98;65.46
68654;BME280;55636;51.108;13.622;2022-12-07T03:20:04;100064.63;;;1.96;65.40
68654;BME280;55636;51.108;13.622;2022-12-07T03:21:14;100063.81;;;1.95;65.47
68654;BME280;55636;51.108;13.622;2022-12-07T03:22:18;100066.72;;;1.93;65.39
68654;BME280;55636;51.108;13.622;2022-12-07T03:23:23;100069.44;;;1.93;65.36
68654;BME280;55636;51.108;13.622;2022-12-07T03:24:30;100067.56;;;1.94;65.50
68654;BME280;55636;51.108;13.622;2022-12-07T03:25:35;100064.00;;;1.93;65.39
68654;BME280;55636;51.108;13.622;2022-12-07T03:26:43;100058.75;;;1.92;65.55
68654;BME280;55636;51.108;13.622;2022-12-07T03:28:02;100062.34;;;1.92;65.61
68654;BME280;55636;51.108;13.622;2022-12-07T03:29:08;100063.38;;;1.91;65.43
68654;BME280;55636;51.108;13.622;2022-12-07T03:30:17;100067.16;;;1.90;65.59
68654;BME280;55636;51.108;13.622;2022-12-07T03:31:24;100066.09;;;1.91;65.68
68654;BME280;55636;51.108;13.622;2022-12-07T03:32:45;100067.16;;;1.90;65.47
68654;BME280;55636;51.108;13.622;2022-12-07T03:33:58;100069.06;;;1.90;65.49
68654;BME280;55636;51.108;13.622;2022-12-07T03:35:08;100067.59;;;1.87;65.52
68654;BME280;55636;51.108;13.622;2022-12-07T03:36:23;100064.00;;;1.87;65.48
68654;BME280;55636;51.108;13.622;2022-12-07T03:37:40;100061.50;;;1.85;65.35
68654;BME280;55636;51.108;13.622;2022-12-07T03:38:49;100062.53;;;1.84;65.47
68654;BME280;55636;51.108;13.622;2022-12-07T03:40:06;100069.06;;;1.83;65.46
68654;BME280;55636;51.108;13.622;2022-12-07T03:41:25;100061.94;;;1.82;65.60
68654;BME280;55636;51.108;13.622;2022-12-07T03:42:29;100061.06;;;1.82;65.50
68654;BME280;55636;51.108;13.622;2022-12-07T03:43:33;100066.50;;;1.82;65.34
68654;BME280;55636;51.108;13.622;2022-12-07T03:44:38;100048.72;;;1.79;65.34
68654;BME280;55636;51.108;13.622;2022-12-07T03:45:44;100054.38;;;1.77;65.44
68654;BME280;55636;51.108;13.622;2022-12-07T03:48:22;100046.41;;;1.76;65.33
68654;BME280;55636;51.108;13.622;2022-12-07T03:49:43;100049.34;;;1.74;65.46
68654;BME280;55636;51.108;13.622;2022-12-07T03:50:49;100044.31;;;1.71;65.41
68654;BME280;55636;51.108;13.622;2022-12-07T03:53:08;100054.38;;;1.71;65.35
68654;BME280;55636;51.108;13.622;2022-12-07T03:54:24;100042.84;;;1.69;65.34
68654;BME280;55636;51.108;13.622;2022-12-07T03:55:35;100053.94;;;1.67;65.56
68654;BME280;55636;51.108;13.622;2022-12-07T03:56:40;100053.94;;;1.67;65.42
68654;BME280;55636;51.108;13.622;2022-12-07T04:00:01;100053.53;;;1.64;65.44
68654;BME280;55636;51.108;13.622;2022-12-07T04:01:29;100040.97;;;1.63;65.35
68654;BME280;55636;51.108;13.622;2022-12-07T04:04:24;100043.28;;;1.59;65.51
68654;BME280;55636;51.108;13.622;2022-12-07T04:05:26;100035.09;;;1.59;65.57
68654;BME280;55636;51.108;13.622;2022-12-07T04:06:29;100039.91;;;1.57;65.48
68654;BME280;55636;51.108;13.622;2022-12-07T04:07:32;100045.34;;;1.57;65.47
68654;BME280;55636;51.108;13.622;2022-12-07T04:08:37;100039.09;;;1.56;65.55
68654;BME280;55636;51.108;13.622;2022-12-07T04:09:39;100036.56;;;1.55;65.49
68654;BME280;55636;51.108;13.622;2022-12-07T04:10:41;100034.69;;;1.55;65.52
68654;BME280;55636;51.108;13.622;2022-12-07T04:11:43;100028.41;;;1.55;65.32
68654;BME280;55636;51.108;13.622;2022-12-07T04:12:46;100022.97;;;1.55;65.35
68654;BME280;55636;51.108;13.622;2022-12-07T04:13:48;100033.00;;;1.54;65.35
68654;BME280;55636;51.108;13.622;2022-12-07T04:15:09;100028.63;;;1.53;65.36
68654;BME280;55636;51.108;13.622;2022-12-07T04:16:11;100032.16;;;1.54;65.30
68654;BME280;55636;51.108;13.622;2022-12-07T04:17:14;100024.22;;;1.52;65.24
68654;BME280;55636;51.108;13.622;2022-12-07T04:18:16;100024.22;;;1.52;65.25
68654;BME280;55636;51.108;13.622;2022-12-07T04:19:22;100017.91;;;1.52;65.36
68654;BME280;55636;51.108;13.622;2022-12-07T04:20:50;100021.88;;;1.49;65.19
68654;BME280;55636;51.108;13.622;2022-12-07T04:22:00;100020.03;;;1.50;65.11
68654;BME280;55636;51.108;13.622;2022-12-07T04:23:03;100015.63;;;1.49;65.08
68654;BME280;55636;51.108;13.622;2022-12-07T04:24:05;100014.97;;;1.47;65.01
68654;BME280;55636;51.108;13.622;2022-12-07T04:25:08;100017.53;;;1.48;65.11
68654;BME280;55636;51.108;13.622;2022-12-07T04:26:11;100020.44;;;1.47;65.01
68654;BME280;55636;51.108;13.622;2022-12-07T04:27:13;100022.97;;;1.48;65.08
68654;BME280;55636;51.108;13.622;2022-12-07T04:28:34;100021.28;;;1.47;65.23
68654;BME280;55636;51.108;13.622;2022-12-07T04:31:14;100008.91;;;1.44;65.22
68654;BME280;55636;51.108;13.622;2022-12-07T04:32:16;100017.09;;;1.44;65.28
68654;BME280;55636;51.108;13.622;2022-12-07T04:33:18;100006.19;;;1.44;65.22
68654;BME280;55636;51.108;13.622;2022-12-07T04:34:45;100005.34;;;1.44;65.13
68654;BME280;55636;51.108;13.622;2022-12-07T04:36:29;100005.34;;;1.44;65.21
68654;BME280;55636;51.108;13.622;2022-12-07T04:40:55;99989.00;;;1.37;65.16
68654;BME280;55636;51.108;13.622;2022-12-07T04:42:03;99981.06;;;1.36;65.22
68654;BME280;55636;51.108;13.622;2022-12-07T04:43:11;99974.56;;;1.37;65.34
68654;BME280;55636;51.108;13.622;2022-12-07T04:44:14;99981.28;;;1.34;65.17
68654;BME280;55636;51.108;13.622;2022-12-07T04:45:17;99985.91;;;1.34;64.97
68654;BME280;55636;51.108;13.622;2022-12-07T04:46:19;99990.47;;;1.33;65.18
68654;BME280;55636;51.108;13.622;2022-12-07T04:47:21;99981.50;;;1.33;65.02
68654;BME280;55636;51.108;13.622;2022-12-07T04:48:23;99987.16;;;1.31;65.06
68654;BME280;55636;51.108;13.622;2022-12-07T04:49:26;99992.59;;;1.31;65.16
68654;BME280;55636;51.108;13.622;2022-12-07T04:50:28;99981.88;;;1.30;64.95
68654;BME280;55636;51.108;13.622;2022-12-07T04:51:30;99983.78;;;1.29;65.07
68654;BME280;55636;51.108;13.622;2022-12-07T04:52:32;99990.28;;;1.28;64.98
68654;BME280;55636;51.108;13.622;2022-12-07T04:53:35;99984.81;;;1.28;64.91
68654;BME280;55636;51.108;13.622;2022-12-07T04:56:13;99983.56;;;1.24;64.96
68654;BME280;55636;51.108;13.622;2022-12-07T04:57:15;99981.06;;;1.22;65.03
68654;BME280;55636;51.108;13.622;2022-12-07T04:58:18;99973.72;;;1.23;65.18
68654;BME280;55636;51.108;13.622;2022-12-07T04:59:20;99980.22;;;1.22;65.18
68654;BME280;55636;51.108;13.622;2022-12-07T05:00:22;99972.25;;;1.20;65.12
68654;BME280;55636;51.108;13.622;2022-12-07T05:01:31;99965.13;;;1.19;65.15
68654;BME280;55636;51.108;13.622;2022-12-07T05:02:33;99973.28;;;1.19;65.12
68654;BME280;55636;51.108;13.622;2022-12-07T05:03:36;99980.63;;;1.19;64.92
68654;BME280;55636;51.108;13.622;2022-12-07T05:04:39;99973.50;;;1.18;65.11
68654;BME280;55636;51.108;13.622;2022-12-07T05:05:41;99974.38;;;1.18;65.15
68654;BME280;55636;51.108;13.622;2022-12-07T05:06:43;99967.25;;;1.17;65.00
68654;BME280;55636;51.108;13.622;2022-12-07T05:07:46;99969.97;;;1.17;65.01
68654;BME280;55636;51.108;13.622;2022-12-07T05:08:48;99964.72;;;1.16;65.01
68654;BME280;55636;51.108;13.622;2022-12-07T05:09:50;99970.19;;;1.16;65.09
68654;BME280;55636;51.108;13.622;2022-12-07T05:10:52;99969.31;;;1.15;65.21
68654;BME280;55636;51.108;13.622;2022-12-07T05:11:55;99970.38;;;1.14;65.25
68654;BME280;55636;51.108;13.622;2022-12-07T05:12:57;99977.47;;;1.15;65.28
68654;BME280;55636;51.108;13.622;2022-12-07T05:14:02;99970.38;;;1.14;65.17
68654;BME280;55636;51.108;13.622;2022-12-07T05:15:05;99966.81;;;1.14;65.10
68654;BME280;55636;51.108;13.622;2022-12-07T05:16:07;99965.13;;;1.13;65.00
68654;BME280;55636;51.108;13.622;2022-12-07T05:17:10;99964.31;;;1.12;65.15
68654;BME280;55636;51.108;13.622;2022-12-07T05:18:16;99961.59;;;1.12;65.12
68654;BME280;55636;51.108;13.622;2022-12-07T05:19:20;99961.59;;;1.12;65.14
68654;BME280;55636;51.108;13.622;2022-12-07T05:20:22;99962.63;;;1.11;65.26
68654;BME280;55636;51.108;13.622;2022-12-07T05:21:25;99956.16;;;1.12;65.26
68654;BME280;55636;51.108;13.622;2022-12-07T05:22:27;99954.47;;;1.11;65.11
68654;BME280;55636;51.108;13.622;2022-12-07T05:23:30;99962.63;;;1.11;65.11
68654;BME280;55636;51.108;13.622;2022-12-07T05:24:32;99958.88;;;1.12;65.21
68654;BME280;55636;51.108;13.622;2022-12-07T05:25:35;99959.91;;;1.11;65.08
68654;BME280;55636;51.108;13.622;2022-12-07T05:26:37;99961.59;;;1.12;65.07
68654;BME280;55636;51.108;13.622;2022-12-07T05:27:39;99956.97;;;1.13;65.05
68654;BME280;55636;51.108;13.622;2022-12-07T05:29:02;99953.41;;;1.12;64.97
68654;BME280;55636;51.108;13.622;2022-12-07T05:30:25;99953.41;;;1.12;64.97
68654;BME280;55636;51.108;13.622;2022-12-07T05:31:28;99956.16;;;1.12;65.03
68654;BME280;55636;51.108;13.622;2022-12-07T05:32:30;99955.09;;;1.13;65.07
68654;BME280;55636;51.108;13.622;2022-12-07T05:33:33;99962.22;;;1.14;65.11
68654;BME280;55636;51.108;13.622;2022-12-07T05:34:35;99955.72;;;1.15;65.17
68654;BME280;55636;51.108;13.622;2022-12-07T05:35:37;99957.59;;;1.15;65.21
68654;BME280;55636;51.108;13.622;2022-12-07T05:36:40;99951.34;;;1.14;65.08
68654;BME280;55636;51.108;13.622;2022-12-07T05:37:42;99954.69;;;1.16;65.12
68654;BME280;55636;51.108;13.622;2022-12-07T05:38:45;99958.44;;;1.15;64.87
68654;BME280;55636;51.108;13.622;2022-12-07T05:39:47;99947.34;;;1.17;65.13
68654;BME280;55636;51.108;13.622;2022-12-07T05:40:50;99943.78;;;1.16;65.09
68654;BME280;55636;51.108;13.622;2022-12-07T05:41:52;99945.47;;;1.17;64.98
68654;BME280;55636;51.108;13.622;2022-12-07T05:43:13;99945.47;;;1.17;64.91
68654;BME280;55636;51.108;13.622;2022-12-07T05:44:15;99948.81;;;1.19;64.98
68654;BME280;55636;51.108;13.622;2022-12-07T05:45:17;99944.22;;;1.20;64.95
68654;BME280;55636;51.108;13.622;2022-12-07T05:46:46;99949.44;;;1.21;64.88
68654;BME280;55636;51.108;13.622;2022-12-07T05:47:57;99936.66;;;1.22;64.91
68654;BME280;55636;51.108;13.622;2022-12-07T05:49:00;99939.22;;;1.23;64.87
68654;BME280;55636;51.108;13.622;2022-12-07T05:50:04;99941.06;;;1.23;65.14
68654;BME280;55636;51.108;13.622;2022-12-07T05:51:08;99940.84;;;1.24;65.03
68654;BME280;55636;51.108;13.622;2022-12-07T05:52:10;99933.53;;;1.25;64.94
68654;BME280;55636;51.108;13.622;2022-12-07T05:53:16;99943.19;;;1.27;64.93
68654;BME280;55636;51.108;13.622;2022-12-07T05:54:24;99937.72;;;1.27;65.00
68654;BME280;55636;51.108;13.622;2022-12-07T05:55:26;99929.56;;;1.27;64.90
68654;BME280;55636;51.108;13.622;2022-12-07T05:56:29;99932.91;;;1.30;64.87
68654;BME280;55636;51.108;13.622;2022-12-07T05:57:31;99931.88;;;1.31;65.02
68654;BME280;55636;51.108;13.622;2022-12-07T05:58:33;99935.44;;;1.31;65.03
68654;BME280;55636;51.108;13.622;2022-12-07T05:59:54;99929.78;;;1.33;64.95
68654;BME280;55636;51.108;13.622;2022-12-07T06:00:59;99933.31;;;1.33;65.00
68654;BME280;55636;51.108;13.622;2022-12-07T06:02:12;99928.53;;;1.35;65.07
68654;BME280;55636;51.108;13.622;2022-12-07T06:03:15;99923.69;;;1.37;64.98
68654;BME280;55636;51.108;13.622;2022-12-07T06:04:19;99931.66;;;1.39;64.84
68654;BME280;55636;51.108;13.622;2022-12-07T06:05:21;99927.88;;;1.40;64.78
68654;BME280;55636;51.108;13.622;2022-12-07T06:06:23;99938.53;;;1.41;64.76
68654;BME280;55636;51.108;13.622;2022-12-07T06:07:26;99932.06;;;1.42;64.96
68654;BME280;55636;51.108;13.622;2022-12-07T06:08:41;99929.97;;;1.44;64.96
68654;BME280;55636;51.108;13.622;2022-12-07T06:09:47;99927.03;;;1.46;64.66
68654;BME280;55636;51.108;13.622;2022-12-07T06:10:49;99932.50;;;1.46;64.81
68654;BME280;55636;51.108;13.622;2022-12-07T06:12:12;99928.72;;;1.47;64.76
68654;BME280;55636;51.108;13.622;2022-12-07T06:13:45;99928.50;;;1.49;64.53
68654;BME280;55636;51.108;13.622;2022-12-07T06:16:30;99925.34;;;1.52;64.48
68654;BME280;55636;51.108;13.622;2022-12-07T06:17:33;99928.94;;;1.52;64.39
68654;BME280;55636;51.108;13.622;2022-12-07T06:18:35;99925.16;;;1.53;64.25
68654;BME280;55636;51.108;13.622;2022-12-07T06:19:38;99915.09;;;1.54;64.27
68654;BME280;55636;51.108;13.622;2022-12-07T06:20:41;99920.31;;;1.55;64.21
68654;BME280;55636;51.108;13.622;2022-12-07T06:21:52;99924.72;;;1.56;64.20
68654;BME280;55636;51.108;13.622;2022-12-07T06:22:54;99923.69;;;1.57;64.16
68654;BME280;55636;51.108;13.622;2022-12-07T06:23:57;99925.38;;;1.58;64.17
68654;BME280;55636;51.108;13.622;2022-12-07T06:24:59;99926.19;;;1.59;64.26
68654;BME280;55636;51.108;13.622;2022-12-07T06:26:12;99928.69;;;1.60;64.22